Time;durP1;ratioP1;P1;durP2;ratioP2;P2;SDS_P1;SDS_P2;PMS_P1;PMS_P2;Temp;Humidity;BMP_temperature;BMP_pressure;BME280_temperature;BME280_humidity;BME280_pressure;Samples;Min_cycle;Max_cycle;Signal;HPM_P1;HPM_P2
2023/10/12 00:00:55;;;;;;;10.93;7.23;;;19.20;99.90;;;;;;10539100;28;20442;-65
2023/10/12 00:05:56;;;;;;;12.00;7.10;;;19.10;99.90;;;;;;10533363;28;20394;-65
2023/10/12 00:10:57;;;;;;;12.43;7.30;;;19.10;99.90;;;;;;10537170;28;20453;-65
2023/10/12 00:15:58;;;;;;;12.27;6.83;;;19.10;99.90;;;;;;10514701;28;20407;-65
2023/10/12 00:21:05;;;;;;;12.13;6.90;;;19.10;99.90;;;;;;10529994;28;20462;-66
2023/10/12 00:26:06;;;;;;;10.43;6.30;;;19.00;99.90;;;;;;10514032;28;20485;-65
2023/10/12 00:31:16;;;;;;;10.27;5.97;;;19.00;99.90;;;;;;10538971;28;20873;-65
2023/10/12 00:36:21;;;;;;;10.00;5.53;;;19.00;99.90;;;;;;10522227;28;20747;-65
2023/10/12 00:41:27;;;;;;;12.20;5.80;;;19.00;99.90;;;;;;10532552;28;20414;-65
2023/10/12 00:51:31;;;;;;;8.47;4.93;;;19.00;99.90;;;;;;10523109;28;20393;-65
2023/10/12 00:56:31;;;;;;;8.35;4.63;;;18.90;99.90;;;;;;10528925;28;20398;-65
2023/10/12 01:01:32;;;;;;;9.32;4.60;;;18.90;99.90;;;;;;10535806;28;20416;-65
2023/10/12 01:06:33;;;;;;;6.95;4.72;;;18.90;99.90;;;;;;10536086;28;20397;-66
2023/10/12 01:11:36;;;;;;;7.77;4.20;;;18.90;99.90;;;;;;10540206;28;20924;-66
2023/10/12 01:21:51;;;;;;;7.15;3.80;;;18.90;99.90;;;;;;10524854;28;20404;-65
2023/10/12 01:26:53;;;;;;;8.27;3.78;;;18.80;99.90;;;;;;10531072;28;20418;-64
2023/10/12 01:37:26;;;;;;;6.00;3.60;;;18.80;99.90;;;;;;10519776;28;20428;-64
2023/10/12 01:47:55;;;;;;;5.13;3.00;;;18.80;99.90;;;;;;10532571;28;20686;-65
2023/10/12 01:52:58;;;;;;;5.70;3.03;;;18.80;99.90;;;;;;10531214;28;20397;-64
2023/10/12 01:58:00;;;;;;;5.23;2.90;;;18.90;99.90;;;;;;10530653;28;20519;-64
2023/10/12 02:03:12;;;;;;;6.30;2.50;;;18.70;99.80;;;;;;10528701;28;20417;-66
2023/10/12 02:08:17;;;;;;;5.20;2.65;;;18.70;99.80;;;;;;10529919;28;20430;-66
2023/10/12 02:13:17;;;;;;;4.53;2.42;;;18.70;99.80;;;;;;10527421;28;20409;-65
2023/10/12 02:18:21;;;;;;;5.45;2.42;;;18.70;99.70;;;;;;10526454;28;20394;-65
2023/10/12 02:23:23;;;;;;;5.18;2.20;;;18.70;99.70;;;;;;10526076;28;20412;-64
2023/10/12 02:28:23;;;;;;;5.20;2.53;;;18.60;99.70;;;;;;10535182;28;20761;-66
2023/10/12 02:33:28;;;;;;;4.13;2.30;;;18.60;99.70;;;;;;10544613;28;20402;-64
2023/10/12 02:38:28;;;;;;;4.68;2.28;;;18.60;99.60;;;;;;10549192;28;20415;-65
2023/10/12 02:43:32;;;;;;;4.53;2.22;;;18.80;99.70;;;;;;10541186;28;20419;-64
2023/10/12 02:48:36;;;;;;;5.17;2.40;;;18.60;99.60;;;;;;10533572;28;20392;-66
2023/10/12 02:53:39;;;;;;;5.45;2.08;;;18.60;99.60;;;;;;10537942;28;20435;-65
2023/10/12 02:58:44;;;;;;;3.78;1.92;;;18.60;99.60;;;;;;10538933;28;20444;-65
2023/10/12 03:03:49;;;;;;;4.43;2.00;;;18.60;99.60;;;;;;10536005;28;20406;-67
2023/10/12 03:09:03;;;;;;;3.57;1.90;;;18.60;99.60;;;;;;10542302;28;20821;-67
2023/10/12 03:14:13;;;;;;;4.93;1.83;;;18.50;99.50;;;;;;10522669;28;21014;-66
2023/10/12 03:24:21;;;;;;;3.55;1.80;;;18.50;99.50;;;;;;10538020;28;20405;-66
2023/10/12 03:29:22;;;;;;;4.95;1.70;;;18.50;99.50;;;;;;10537751;28;20396;-67
2023/10/12 03:44:52;;;;;;;4.63;1.60;;;18.40;99.40;;;;;;10532454;28;20459;-66
2023/10/12 03:55:09;;;;;;;5.37;1.67;;;18.40;99.30;;;;;;10538412;28;20404;-66
2023/10/12 04:05:20;;;;;;;3.55;1.60;;;18.40;99.30;;;;;;10549391;28;20435;-65
2023/10/12 04:21:03;;;;;;;5.23;1.50;;;18.40;99.50;;;;;;10515762;28;20456;-67
2023/10/12 04:31:20;;;;;;;4.68;1.45;;;18.30;99.20;;;;;;10523962;28;20400;-67
2023/10/12 04:36:33;;;;;;;4.63;1.47;;;18.30;99.20;;;;;;10510235;28;20406;-65
2023/10/12 04:46:49;;;;;;;4.32;1.60;;;18.30;99.20;;;;;;10522338;28;20402;-67
2023/10/12 04:51:53;;;;;;;4.60;1.40;;;18.30;99.20;;;;;;10534659;28;20398;-67
2023/10/12 04:57:11;;;;;;;3.20;1.20;;;18.30;99.20;;;;;;10522952;28;20396;-66
2023/10/12 05:12:20;;;;;;;3.80;1.67;;;18.20;99.50;;;;;;10530360;28;22141;-66
2023/10/12 05:17:22;;;;;;;3.63;1.10;;;18.20;99.20;;;;;;10528316;28;20394;-68
2023/10/12 05:22:22;;;;;;;4.25;1.30;;;18.20;99.30;;;;;;10516040;28;20409;-67
2023/10/12 05:27:23;;;;;;;2.83;1.42;;;18.20;99.30;;;;;;10510684;28;20398;-66
2023/10/12 05:32:36;;;;;;;3.10;1.20;;;18.20;99.30;;;;;;10525367;28;20406;-66
2023/10/12 05:37:48;;;;;;;4.10;1.38;;;18.20;99.30;;;;;;10528105;28;20900;-67
2023/10/12 05:42:50;;;;;;;4.47;1.35;;;18.30;99.30;;;;;;10528870;28;20406;-67
2023/10/12 05:47:54;;;;;;;4.40;1.20;;;18.20;99.30;;;;;;10530559;28;20496;-66
2023/10/12 05:52:59;;;;;;;4.40;1.30;;;18.10;99.30;;;;;;10523876;28;20564;-67
2023/10/12 05:58:19;;;;;;;4.33;1.30;;;18.10;99.20;;;;;;10509859;28;20445;-71
2023/10/12 06:03:22;;;;;;;4.47;1.57;;;18.10;99.30;;;;;;10510798;28;20439;-67
2023/10/12 06:08:26;;;;;;;4.53;1.70;;;18.20;99.30;;;;;;10516741;28;20398;-67
2023/10/12 06:13:42;;;;;;;4.50;1.45;;;18.20;99.30;;;;;;10501721;28;20407;-66
2023/10/12 06:18:46;;;;;;;4.15;1.38;;;18.10;99.30;;;;;;10511216;28;20422;-67
2023/10/12 06:23:50;;;;;;;4.03;1.50;;;18.20;99.30;;;;;;10516404;28;20410;-66
2023/10/12 06:28:51;;;;;;;3.67;1.40;;;18.10;99.20;;;;;;10507901;28;21124;-68
2023/10/12 06:33:55;;;;;;;3.83;1.30;;;18.10;99.20;;;;;;10507557;28;20414;-67
2023/10/12 06:44:28;;;;;;;4.10;1.30;;;18.10;99.20;;;;;;10526110;28;20777;-67
2023/10/12 06:49:29;;;;;;;3.50;1.20;;;18.10;99.20;;;;;;10520910;28;20433;-67
2023/10/12 06:54:39;;;;;;;3.10;1.40;;;18.10;99.20;;;;;;10528867;28;20521;-67
2023/10/12 06:59:52;;;;;;;3.87;1.57;;;18.10;99.20;;;;;;10496389;28;20498;-67
2023/10/12 07:04:56;;;;;;;3.50;1.50;;;18.10;99.20;;;;;;10526724;28;20485;-67
2023/10/12 07:10:12;;;;;;;3.90;1.30;;;18.10;99.20;;;;;;10532985;28;20405;-67
2023/10/12 07:15:32;;;;;;;3.35;1.30;;;18.00;99.10;;;;;;10544485;28;20426;-66
2023/10/12 07:25:36;;;;;;;4.40;1.33;;;18.10;99.10;;;;;;10537763;28;20780;-67
2023/10/12 07:30:42;;;;;;;3.13;1.60;;;18.10;99.10;;;;;;10527215;28;20418;-67
2023/10/12 07:35:43;;;;;;;4.65;1.40;;;18.00;99.10;;;;;;10532681;28;20950;-67
2023/10/12 07:40:56;;;;;;;3.93;1.43;;;18.10;99.00;;;;;;10503832;28;20456;-67
2023/10/12 07:46:09;;;;;;;3.67;1.35;;;18.20;99.10;;;;;;10515437;28;20813;-67
2023/10/12 07:56:31;;;;;;;4.18;1.30;;;18.30;98.90;;;;;;10529475;28;20403;-67
2023/10/12 08:11:39;;;;;;;3.95;1.25;;;18.40;98.80;;;;;;10519119;28;20776;-66
2023/10/12 08:16:40;;;;;;;3.35;1.20;;;18.40;98.70;;;;;;10534865;28;20487;-66
2023/10/12 08:21:43;;;;;;;3.15;1.42;;;18.40;98.70;;;;;;10494674;28;20408;-65
2023/10/12 08:31:45;;;;;;;3.53;1.47;;;18.30;98.80;;;;;;10526141;28;20458;-66
2023/10/12 08:37:36;;;;;;;3.10;1.33;;;18.30;98.70;;;;;;10525526;28;20824;-66
2023/10/12 08:47:27;;;;;;;3.30;1.60;;;18.20;98.70;;;;;;10524523;28;20455;-67
2023/10/12 08:52:30;;;;;;;5.20;1.23;;;18.30;98.70;;;;;;10537553;28;20494;-66
2023/10/12 08:57:35;;;;;;;3.47;1.27;;;18.30;98.70;;;;;;10524338;28;20433;-67
2023/10/12 09:02:39;;;;;;;2.95;1.33;;;18.20;98.70;;;;;;10542308;28;20408;-67
2023/10/12 09:07:45;;;;;;;3.30;1.30;;;18.20;98.60;;;;;;10507672;28;20475;-67
2023/10/12 09:12:46;;;;;;;4.85;1.50;;;18.20;98.60;;;;;;10529372;28;20401;-67
2023/10/12 09:17:48;;;;;;;5.30;1.42;;;18.20;98.50;;;;;;10522912;28;20410;-68
2023/10/12 09:22:56;;;;;;;3.05;1.40;;;18.20;98.50;;;;;;10514066;28;20411;-66
2023/10/12 09:27:57;;;;;;;3.38;1.30;;;18.20;98.40;;;;;;10522274;28;20457;-66
2023/10/12 09:33:06;;;;;;;5.10;1.50;;;18.20;98.40;;;;;;10520599;28;20399;-67
2023/10/12 09:38:07;;;;;;;3.97;1.75;;;18.20;98.30;;;;;;10520035;28;20426;-67
2023/10/12 09:43:15;;;;;;;4.40;1.47;;;18.20;98.30;;;;;;10533405;28;20811;-67
2023/10/12 09:48:21;;;;;;;4.57;1.50;;;18.30;98.30;;;;;;10528832;28;20935;-67
2023/10/12 09:53:37;;;;;;;4.13;1.33;;;18.50;98.30;;;;;;10512524;28;20763;-66
2023/10/12 09:58:51;;;;;;;3.33;1.38;;;18.60;98.30;;;;;;10537972;28;20439;-67
2023/10/12 10:04:05;;;;;;;3.97;1.60;;;18.30;98.20;;;;;;10510736;28;20414;-67
2023/10/12 10:09:18;;;;;;;4.13;1.57;;;18.30;98.10;;;;;;10530021;28;20478;-67
2023/10/12 10:14:20;;;;;;;3.45;1.40;;;18.30;98.10;;;;;;10512122;28;20405;-67
2023/10/12 10:19:28;;;;;;;4.13;1.50;;;18.30;98.10;;;;;;10507523;28;20558;-67
2023/10/12 10:24:57;;;;;;;2.83;1.45;;;18.30;98.10;;;;;;10519593;28;20907;-67
2023/10/12 10:29:58;;;;;;;3.38;1.50;;;18.30;98.10;;;;;;10531046;28;20507;-67
2023/10/12 10:35:04;;;;;;;4.13;1.50;;;18.40;98.20;;;;;;10531019;28;20780;-68
2023/10/12 10:40:08;;;;;;;2.85;1.40;;;18.20;98.10;;;;;;10527594;28;20928;-67
2023/10/12 10:45:12;;;;;;;4.87;1.67;;;18.30;98.10;;;;;;10517878;28;20500;-67
2023/10/12 10:50:15;;;;;;;3.23;1.67;;;18.30;98.10;;;;;;10541375;28;20487;-67
2023/10/12 10:55:24;;;;;;;5.05;1.45;;;18.30;98.10;;;;;;10526329;28;20427;-67
2023/10/12 11:00:33;;;;;;;4.57;1.58;;;18.30;98.10;;;;;;10522353;28;20390;-67
2023/10/12 11:05:37;;;;;;;4.23;1.53;;;18.30;98.10;;;;;;10541637;28;20431;-67
2023/10/12 11:11:14;;;;;;;4.45;1.60;;;18.30;98.10;;;;;;10530181;28;20408;-66
2023/10/12 11:16:20;;;;;;;3.60;1.50;;;18.20;98.00;;;;;;10514193;28;20403;-68
2023/10/12 11:21:21;;;;;;;4.38;1.50;;;18.20;97.90;;;;;;10526929;28;20412;-67
2023/10/12 11:26:22;;;;;;;3.40;1.40;;;18.20;97.80;;;;;;10520986;28;20917;-68
2023/10/12 11:31:32;;;;;;;4.72;1.50;;;18.20;97.80;;;;;;10522408;28;20405;-67
2023/10/12 11:36:35;;;;;;;5.55;1.45;;;18.20;97.70;;;;;;10530748;28;20400;-67
2023/10/12 11:41:40;;;;;;;4.28;1.50;;;18.20;97.60;;;;;;10535789;28;20436;-67
2023/10/12 11:46:44;;;;;;;3.93;1.57;;;18.20;97.60;;;;;;10539287;28;20763;-65
2023/10/12 11:51:53;;;;;;;4.53;1.40;;;18.20;97.60;;;;;;10532631;28;20397;-67
2023/10/12 11:56:54;;;;;;;3.80;1.33;;;18.10;97.50;;;;;;10528060;28;20449;-66
2023/10/12 12:01:57;;;;;;;5.10;1.10;;;18.20;97.50;;;;;;10498592;28;20811;-67
2023/10/12 12:06:59;;;;;;;3.73;1.30;;;18.20;97.50;;;;;;10517868;28;20725;-66
2023/10/12 12:12:00;;;;;;;4.22;1.30;;;18.10;97.60;;;;;;10511091;28;20409;-67
2023/10/12 12:17:01;;;;;;;5.60;1.42;;;18.10;97.60;;;;;;10541124;28;20483;-66
2023/10/12 12:22:01;;;;;;;3.60;1.13;;;18.10;97.60;;;;;;10526464;28;20408;-68
2023/10/12 12:27:02;;;;;;;4.03;1.60;;;18.10;97.60;;;;;;10510506;28;20832;-67
2023/10/12 12:32:03;;;;;;;5.93;1.47;;;18.10;97.60;;;;;;10525856;28;20502;-66
2023/10/12 12:37:05;;;;;;;5.90;1.60;;;18.10;97.70;;;;;;10503694;28;20436;-67
2023/10/12 12:42:09;;;;;;;3.67;1.30;;;18.10;97.70;;;;;;10528694;28;20491;-68
2023/10/12 12:47:11;;;;;;;5.50;1.50;;;18.10;97.80;;;;;;10517021;28;20400;-67
2023/10/12 12:52:12;;;;;;;4.07;1.50;;;18.00;97.80;;;;;;10526822;28;20417;-66
2023/10/12 12:57:14;;;;;;;3.57;1.63;;;18.00;97.80;;;;;;10520661;28;20531;-67
2023/10/12 13:02:16;;;;;;;4.47;1.50;;;18.10;97.80;;;;;;10516904;28;20512;-66
2023/10/12 13:07:17;;;;;;;5.47;1.30;;;18.10;97.90;;;;;;10526189;28;20461;-66
2023/10/12 13:12:18;;;;;;;4.88;1.45;;;18.00;97.90;;;;;;10523829;28;20403;-67
2023/10/12 13:17:18;;;;;;;4.23;1.27;;;18.10;98.00;;;;;;10536601;28;20459;-68
2023/10/12 13:22:19;;;;;;;5.40;1.60;;;18.20;98.00;;;;;;10519841;28;20419;-66
2023/10/12 13:27:21;;;;;;;3.33;1.40;;;18.00;98.00;;;;;;10512534;28;20812;-67
2023/10/12 13:32:22;;;;;;;4.90;1.40;;;18.50;98.20;;;;;;10528309;28;20400;-66
2023/10/12 13:37:22;;;;;;;2.90;1.00;;;18.00;98.00;;;;;;10528097;28;20412;-67
2023/10/12 13:42:23;;;;;;;3.03;1.20;;;18.00;98.00;;;;;;10525346;28;20436;-67
2023/10/12 13:47:25;;;;;;;4.38;1.20;;;18.00;98.10;;;;;;10522258;28;20408;-67
2023/10/12 13:52:25;;;;;;;4.90;1.60;;;18.00;98.10;;;;;;10498437;28;20405;-67
2023/10/12 13:57:26;;;;;;;5.25;1.38;;;18.00;98.10;;;;;;10522274;28;20410;-67
2023/10/12 14:02:27;;;;;;;3.38;1.40;;;18.00;98.10;;;;;;10519633;28;20923;-67
2023/10/12 14:07:28;;;;;;;4.25;1.48;;;18.00;98.10;;;;;;10528137;28;20418;-68
2023/10/12 14:12:28;;;;;;;5.47;1.50;;;17.90;98.10;;;;;;10532163;28;20422;-66
2023/10/12 14:17:29;;;;;;;2.75;1.33;;;17.90;98.10;;;;;;10523814;28;20423;-67
2023/10/12 14:22:29;;;;;;;3.50;1.00;;;17.90;98.10;;;;;;10521174;28;20417;-67
2023/10/12 14:27:30;;;;;;;2.77;1.10;;;17.90;98.10;;;;;;10526689;28;20412;-66
2023/10/12 14:32:30;;;;;;;2.40;1.30;;;17.90;98.20;;;;;;10516718;28;20485;-67
2023/10/12 14:37:36;;;;;;;2.70;1.30;;;17.90;98.20;;;;;;10532075;28;20421;-67
2023/10/12 14:42:43;;;;;;;3.40;1.40;;;17.80;98.20;;;;;;10513393;28;20754;-66
2023/10/12 14:47:46;;;;;;;4.30;1.40;;;17.80;98.20;;;;;;10527304;28;20398;-68
2023/10/12 14:52:46;;;;;;;3.75;1.30;;;17.80;98.20;;;;;;10538226;28;20921;-67
2023/10/12 14:57:49;;;;;;;3.63;1.30;;;17.90;98.20;;;;;;10533594;28;20415;-69
2023/10/12 15:02:51;;;;;;;2.70;1.23;;;17.80;98.20;;;;;;10534233;28;20583;-68
2023/10/12 15:07:52;;;;;;;3.80;1.47;;;17.80;98.30;;;;;;10531381;28;20408;-69
2023/10/12 15:12:56;;;;;;;3.70;1.42;;;17.80;98.40;;;;;;10513728;28;20974;-69
2023/10/12 15:17:56;;;;;;;4.80;1.53;;;17.70;98.30;;;;;;10530615;28;20431;-68
2023/10/12 15:22:58;;;;;;;4.10;1.60;;;17.90;98.40;;;;;;10523089;28;21250;-70
2023/10/12 15:27:58;;;;;;;5.13;1.60;;;17.80;98.30;;;;;;10522087;28;20847;-69
2023/10/12 15:33:00;;;;;;;4.80;1.50;;;17.70;98.30;;;;;;10502191;28;20859;-70
2023/10/12 15:38:02;;;;;;;3.33;1.60;;;17.80;98.30;;;;;;10525220;28;20441;-73
2023/10/12 15:43:14;;;;;;;3.80;1.67;;;17.70;98.30;;;;;;10532754;28;20864;-66
2023/10/12 15:48:15;;;;;;;5.22;1.77;;;17.70;98.30;;;;;;10531613;28;20427;-67
2023/10/12 15:53:17;;;;;;;3.70;1.83;;;17.80;98.40;;;;;;10532837;28;20481;-68
2023/10/12 15:58:18;;;;;;;4.70;1.92;;;17.70;98.40;;;;;;10526752;28;20896;-68
2023/10/12 16:03:21;;;;;;;5.70;1.90;;;17.70;98.40;;;;;;10525844;28;20926;-67
2023/10/12 16:08:22;;;;;;;5.88;2.03;;;17.70;98.40;;;;;;10525247;28;20444;-68
2023/10/12 16:13:23;;;;;;;4.90;1.87;;;17.80;98.50;;;;;;10514231;28;20512;-69
2023/10/12 16:18:23;;;;;;;4.03;1.70;;;17.70;98.50;;;;;;10520982;28;20399;-67
2023/10/12 16:23:26;;;;;;;4.73;2.10;;;17.70;98.50;;;;;;10525397;28;20400;-68
2023/10/12 16:28:28;;;;;;;6.03;2.20;;;17.90;98.50;;;;;;10500238;28;20401;-68
2023/10/12 16:33:32;;;;;;;3.85;1.90;;;18.10;98.60;;;;;;10513593;28;20781;-71
2023/10/12 16:38:33;;;;;;;3.70;2.10;;;17.80;98.60;;;;;;10532840;28;20429;-68
2023/10/12 16:43:34;;;;;;;4.35;2.40;;;17.70;98.50;;;;;;10536173;28;20415;-68
2023/10/12 16:48:35;;;;;;;3.70;2.33;;;18.00;98.80;;;;;;10534461;28;20500;-68
2023/10/12 16:53:37;;;;;;;5.53;2.37;;;17.60;98.80;;;;;;10529626;28;20947;-69
2023/10/12 16:58:39;;;;;;;4.43;2.65;;;17.90;98.80;;;;;;10487727;28;20916;-68
2023/10/12 17:03:40;;;;;;;5.20;2.50;;;17.60;98.80;;;;;;10503580;28;20416;-67
2023/10/12 17:08:41;;;;;;;5.43;2.50;;;17.60;98.80;;;;;;10520901;28;20565;-68
2023/10/12 17:13:41;;;;;;;5.78;2.97;;;17.60;98.80;;;;;;10519540;28;20503;-70
2023/10/12 17:18:44;;;;;;;6.13;3.10;;;17.60;99.00;;;;;;10526622;28;20420;-68
2023/10/12 17:23:46;;;;;;;5.45;2.85;;;17.60;98.90;;;;;;10527170;28;20421;-69
2023/10/12 17:28:47;;;;;;;6.05;2.95;;;17.60;98.80;;;;;;10513628;28;20401;-67
2023/10/12 17:33:48;;;;;;;4.33;2.60;;;17.70;98.80;;;;;;10525715;28;20425;-67
2023/10/12 17:38:50;;;;;;;6.63;2.88;;;17.50;98.70;;;;;;10530141;28;20922;-66
2023/10/12 17:43:52;;;;;;;5.95;2.92;;;17.70;98.70;;;;;;10512753;28;20420;-66
2023/10/12 17:48:53;;;;;;;5.55;2.95;;;17.60;98.70;;;;;;10509333;28;20479;-67
2023/10/12 17:53:54;;;;;;;5.88;3.08;;;17.60;98.70;;;;;;10527093;28;20424;-68
2023/10/12 17:58:54;;;;;;;5.07;3.35;;;17.60;98.70;;;;;;10526452;28;20487;-66
2023/10/12 18:03:55;;;;;;;6.70;3.30;;;17.60;98.70;;;;;;10520002;28;20502;-67
2023/10/12 18:08:58;;;;;;;8.30;3.60;;;17.60;98.70;;;;;;10508455;28;20840;-70
2023/10/12 18:13:59;;;;;;;5.97;3.42;;;17.60;98.80;;;;;;10515962;28;20408;-67
2023/10/12 18:19:02;;;;;;;7.43;3.93;;;17.50;98.80;;;;;;10506485;28;20929;-68
2023/10/12 18:24:03;;;;;;;6.60;4.00;;;17.50;99.40;;;;;;10509477;28;20460;-67
2023/10/12 18:29:05;;;;;;;6.40;3.92;;;17.60;99.20;;;;;;10521080;28;20394;-67
2023/10/12 18:34:07;;;;;;;6.07;4.13;;;17.50;99.10;;;;;;10498999;28;20411;-67
2023/10/12 18:39:08;;;;;;;7.63;4.07;;;17.50;99.20;;;;;;10516630;28;20499;-67
2023/10/12 18:44:10;;;;;;;7.32;4.40;;;17.60;99.30;;;;;;10517238;28;20414;-67
2023/10/12 18:49:14;;;;;;;8.27;4.37;;;17.60;99.30;;;;;;10516151;28;20404;-67
2023/10/12 18:54:15;;;;;;;6.50;4.23;;;17.60;99.30;;;;;;10508291;28;20855;-67
2023/10/12 18:59:16;;;;;;;9.50;4.95;;;17.60;99.40;;;;;;10519435;28;20503;-67
2023/10/12 19:04:16;;;;;;;8.27;5.20;;;18.00;99.80;;;;;;10528023;28;20408;-67
2023/10/12 19:09:17;;;;;;;8.95;5.25;;;17.60;99.50;;;;;;10534876;28;20404;-68
2023/10/12 19:14:18;;;;;;;8.73;5.40;;;17.60;99.60;;;;;;10526294;28;20402;-67
2023/10/12 19:19:19;;;;;;;9.57;4.90;;;17.70;99.60;;;;;;10519195;28;20409;-68
2023/10/12 19:24:22;;;;;;;6.87;4.60;;;17.60;99.50;;;;;;10521113;28;20823;-66
2023/10/12 19:29:23;;;;;;;9.70;5.03;;;17.60;99.60;;;;;;10518502;28;20408;-66
2023/10/12 19:34:25;;;;;;;7.80;5.30;;;17.60;99.60;;;;;;10534063;28;20404;-67
2023/10/12 19:39:25;;;;;;;7.20;5.00;;;17.60;99.50;;;;;;10524804;28;20945;-66
2023/10/12 19:44:26;;;;;;;7.50;4.82;;;17.60;99.50;;;;;;10522749;28;20715;-66
2023/10/12 19:49:27;;;;;;;7.30;4.90;;;17.60;99.50;;;;;;10494135;28;20407;-67
2023/10/12 19:54:28;;;;;;;7.23;4.80;;;17.60;99.40;;;;;;10514956;28;20815;-68
2023/10/12 19:59:29;;;;;;;8.30;5.40;;;17.60;99.40;;;;;;10514799;28;20960;-67
2023/10/12 20:04:30;;;;;;;7.33;4.83;;;18.20;99.50;;;;;;10523012;28;20416;-67
2023/10/12 20:09:31;;;;;;;6.50;4.72;;;17.60;99.40;;;;;;10526925;28;20409;-67
2023/10/12 20:14:32;;;;;;;8.13;5.00;;;17.50;99.30;;;;;;10526373;28;20410;-67
2023/10/12 20:19:33;;;;;;;5.97;4.50;;;17.50;99.30;;;;;;10526103;28;20405;-66
2023/10/12 20:24:35;;;;;;;10.50;5.05;;;17.50;99.30;;;;;;10500925;28;20497;-67
2023/10/12 20:29:37;;;;;;;7.70;5.18;;;17.50;99.30;;;;;;10506442;28;20406;-67
2023/10/12 20:34:39;;;;;;;6.37;4.90;;;17.50;99.30;;;;;;10523316;28;20414;-67
2023/10/12 20:39:40;;;;;;;7.10;4.97;;;17.50;99.30;;;;;;10527892;28;20444;-68
2023/10/12 20:44:44;;;;;;;6.57;4.85;;;17.50;99.40;;;;;;10532139;28;20404;-67
2023/10/12 20:49:44;;;;;;;8.27;4.80;;;17.50;99.30;;;;;;10520452;28;20441;-67
2023/10/12 20:54:45;;;;;;;7.23;5.27;;;17.50;99.30;;;;;;10514395;28;20925;-67
2023/10/12 20:59:46;;;;;;;6.77;4.80;;;17.50;99.30;;;;;;10522402;28;20403;-67
2023/10/12 21:04:49;;;;;;;7.47;5.10;;;17.50;99.30;;;;;;10517778;28;20422;-65
2023/10/12 21:10:12;;;;;;;6.88;4.90;;;17.60;99.40;;;;;;10519001;28;20536;-67
2023/10/12 21:15:21;;;;;;;6.82;5.10;;;17.50;99.40;;;;;;10506763;28;20490;-68
2023/10/12 21:20:37;;;;;;;6.97;5.10;;;17.50;99.40;;;;;;10513738;28;20417;-68
2023/10/12 21:25:38;;;;;;;8.83;5.43;;;17.50;99.40;;;;;;10507398;28;20406;-68
2023/10/12 21:30:39;;;;;;;8.00;5.28;;;17.50;99.40;;;;;;10508432;28;20409;-67
2023/10/12 21:35:47;;;;;;;6.65;4.88;;;17.50;99.50;;;;;;10518126;28;20864;-68
2023/10/12 21:40:55;;;;;;;9.53;4.80;;;17.50;99.50;;;;;;10524253;28;20448;-67
2023/10/12 21:45:58;;;;;;;8.02;5.20;;;17.50;99.50;;;;;;10519828;28;20924;-67
2023/10/12 21:50:59;;;;;;;7.47;4.90;;;17.50;99.50;;;;;;10526619;28;20409;-68
2023/10/12 21:56:00;;;;;;;7.20;5.15;;;17.50;99.50;;;;;;10520909;28;20921;-65
2023/10/12 22:01:07;;;;;;;6.40;5.03;;;17.80;99.50;;;;;;10515500;28;20465;-66
2023/10/12 22:06:15;;;;;;;7.73;4.90;;;17.50;99.50;;;;;;10526575;28;20487;-67
2023/10/12 22:11:20;;;;;;;5.90;4.70;;;17.50;99.40;;;;;;10519450;28;20769;-68
2023/10/12 22:16:32;;;;;;;7.68;5.18;;;17.50;99.40;;;;;;10510220;28;20477;-68
2023/10/12 22:21:33;;;;;;;7.13;4.97;;;17.60;99.50;;;;;;10519302;28;20489;-66
2023/10/12 22:26:40;;;;;;;6.73;4.70;;;17.50;99.40;;;;;;10526133;28;20451;-68
2023/10/12 22:31:44;;;;;;;7.17;5.00;;;17.60;99.40;;;;;;10501752;28;20406;-67
2023/10/12 22:36:49;;;;;;;7.78;5.00;;;17.50;99.40;;;;;;10519732;28;20969;-68
2023/10/12 22:41:50;;;;;;;6.15;4.95;;;17.50;99.40;;;;;;10525920;28;20439;-68
2023/10/12 22:46:50;;;;;;;6.43;4.90;;;17.50;99.40;;;;;;10546878;28;20479;-65
2023/10/12 22:51:51;;;;;;;7.80;5.10;;;17.50;99.40;;;;;;10527470;28;20416;-67
2023/10/12 22:56:52;;;;;;;7.90;5.00;;;17.50;99.40;;;;;;10530553;28;20467;-68
2023/10/12 23:01:53;;;;;;;6.75;5.32;;;17.50;99.50;;;;;;10551485;28;20409;-66
2023/10/12 23:06:54;;;;;;;5.97;5.03;;;17.60;99.40;;;;;;10537816;28;20451;-67
2023/10/12 23:11:56;;;;;;;6.23;5.13;;;17.60;99.40;;;;;;10519673;28;20901;-67
2023/10/12 23:16:57;;;;;;;6.33;5.13;;;17.60;99.40;;;;;;10528080;28;20893;-67
2023/10/12 23:22:00;;;;;;;6.10;5.10;;;17.60;99.40;;;;;;10536536;28;20730;-67
2023/10/12 23:27:03;;;;;;;6.68;5.40;;;17.60;99.40;;;;;;10505862;28;20807;-65
2023/10/12 23:32:07;;;;;;;7.63;5.50;;;17.70;99.50;;;;;;10528536;28;20411;-68
2023/10/12 23:37:10;;;;;;;7.18;5.40;;;17.60;99.40;;;;;;10535001;28;20893;-67
2023/10/12 23:42:13;;;;;;;7.53;5.40;;;17.70;99.50;;;;;;10540091;28;20415;-65
2023/10/12 23:47:22;;;;;;;6.77;5.40;;;17.60;99.40;;;;;;10532709;28;20398;-65
2023/10/12 23:52:27;;;;;;;6.78;5.22;;;17.70;99.50;;;;;;10508635;28;20402;-67
2023/10/12 23:57:27;;;;;;;6.93;5.18;;;17.60;99.40;;;;;;10519041;28;20447;-66
